Time;durP1;ratioP1;P1;durP2;ratioP2;P2;SDS_P1;SDS_P2;PMS_P1;PMS_P2;Temp;Humidity;BMP_temperature;BMP_pressure;BME280_temperature;BME280_humidity;BME280_pressure;Samples;Min_cycle;Max_cycle;Signal;HPM_P1;HPM_P2
2021/06/22 00:09:10;;;;;;;8.85;2.88;;;;;;;17.56;85.89;99908.66;20748315;28;20092;-68
2021/06/22 00:19:13;;;;;;;6.80;3.42;;;;;;;17.33;86.55;99922.22;20748232;28;20046;-69
2021/06/22 00:29:16;;;;;;;6.93;4.78;;;;;;;17.40;85.28;99916.53;20747646;28;20064;-70
2021/06/22 00:39:18;;;;;;;10.98;5.95;;;;;;;17.27;85.50;99904.00;20745998;28;20046;-69
2021/06/22 00:49:20;;;;;;;10.48;7.55;;;;;;;17.06;87.12;99904.16;20744946;28;20334;-69
2021/06/22 00:59:22;;;;;;;12.40;9.77;;;;;;;17.07;87.24;99913.81;20745457;28;20089;-69
2021/06/22 01:09:24;;;;;;;16.85;11.85;;;;;;;17.12;85.25;99903.00;20743369;28;20052;-69
2021/06/22 01:19:29;;;;;;;17.98;14.43;;;;;;;16.81;86.60;99906.31;20743876;28;20053;-69
2021/06/22 01:29:31;;;;;;;18.77;14.68;;;;;;;16.58;87.20;99891.56;20739701;28;20532;-69
2021/06/22 01:39:33;;;;;;;19.63;15.43;;;;;;;16.42;86.64;99891.41;20741612;28;20034;-70
2021/06/22 01:49:35;;;;;;;22.55;16.35;;;;;;;16.24;88.17;99902.84;20741498;28;20045;-68
2021/06/22 01:59:39;;;;;;;23.60;16.92;;;;;;;16.08;87.33;99914.13;20739820;28;20050;-68
2021/06/22 02:09:41;;;;;;;25.77;17.50;;;;;;;16.11;87.74;99914.00;20739731;28;20107;-69
2021/06/22 02:19:43;;;;;;;21.45;15.68;;;;;;;16.00;87.25;99923.34;20739791;28;20056;-69
2021/06/22 02:29:45;;;;;;;24.95;15.80;;;;;;;15.92;86.86;99901.72;20739878;28;20104;-69
2021/06/22 02:39:47;;;;;;;22.92;15.05;;;;;;;15.74;87.65;99874.38;20737214;28;20551;-69
2021/06/22 02:49:50;;;;;;;21.15;13.70;;;;;;;15.71;87.00;99879.78;20737908;28;20041;-70
2021/06/22 02:59:51;;;;;;;16.45;11.20;;;;;;;15.55;86.21;99890.13;20737290;28;20063;-70
2021/06/22 03:09:52;;;;;;;16.20;10.88;;;;;;;15.53;85.70;99884.94;20752742;28;20440;-68
2021/06/22 03:19:54;;;;;;;13.93;10.02;;;;;;;15.46;85.75;99888.75;20762119;28;20042;-68
2021/06/22 03:29:56;;;;;;;16.88;10.45;;;;;;;15.57;85.69;99881.25;20763848;28;20045;-69
2021/06/22 03:39:58;;;;;;;19.17;11.75;;;;;;;15.53;85.85;99870.91;20762265;28;20046;-70
2021/06/22 03:50:02;;;;;;;18.90;11.23;;;;;;;15.38;86.39;99881.19;20763189;28;20069;-69
2021/06/22 04:00:04;;;;;;;17.30;10.88;;;;;;;15.22;86.44;99879.28;20761696;28;20058;-69
2021/06/22 04:10:07;;;;;;;15.35;10.38;;;;;;;15.58;86.14;99904.06;20762148;28;20112;-69
2021/06/22 04:20:11;;;;;;;16.23;10.23;;;;;;;15.34;85.74;99936.78;20754612;28;20054;-68
2021/06/22 04:30:13;;;;;;;14.35;9.25;;;;;;;15.36;85.73;99916.47;20748349;28;20046;-69
2021/06/22 04:40:15;;;;;;;12.77;8.32;;;;;;;15.24;86.17;99927.56;20748310;28;20104;-69
2021/06/22 04:50:17;;;;;;;14.60;8.73;;;;;;;15.49;85.88;99941.41;20747835;28;20046;-69
2021/06/22 05:00:19;;;;;;;10.27;7.15;;;;;;;15.46;85.52;99946.81;20746551;28;20061;-69
2021/06/22 05:10:21;;;;;;;11.60;7.20;;;;;;;15.57;85.21;99964.81;20746006;28;20042;-69
2021/06/22 05:20:23;;;;;;;10.15;6.45;;;;;;;15.68;84.56;99967.03;20746773;28;20050;-69
2021/06/22 05:30:25;;;;;;;10.50;6.32;;;;;;;15.71;84.17;99970.38;20744378;28;20041;-69
2021/06/22 05:40:27;;;;;;;11.27;6.38;;;;;;;15.86;83.94;99982.94;20743925;28;20046;-69
2021/06/22 05:50:29;;;;;;;8.95;5.85;;;;;;;15.93;83.35;100006.41;20745866;28;20411;-69
2021/06/22 06:00:32;;;;;;;9.55;5.63;;;;;;;15.86;83.47;100003.19;20743102;28;20103;-69
2021/06/22 06:10:34;;;;;;;8.55;5.03;;;;;;;15.91;81.94;100006.47;20741908;28;20049;-69
2021/06/22 06:20:36;;;;;;;8.88;5.03;;;;;;;15.96;82.23;100022.97;20740655;28;20045;-69
2021/06/22 06:30:38;;;;;;;7.82;4.13;;;;;;;15.90;82.84;100023.22;20738423;28;20528;-68
2021/06/22 06:40:40;;;;;;;8.20;4.45;;;;;;;15.92;82.68;100029.31;20739713;28;20054;-68
2021/06/22 06:50:42;;;;;;;9.75;4.57;;;;;;;15.79;83.27;100026.34;20737881;28;20041;-68
2021/06/22 07:00:45;;;;;;;9.88;4.90;;;;;;;15.81;85.94;100047.38;20731071;28;20413;-67
2021/06/22 07:10:47;;;;;;;8.77;4.80;;;;;;;15.81;86.76;100063.22;20646129;28;20085;-67
2021/06/22 07:20:48;;;;;;;8.18;4.78;;;;;;;15.76;87.93;100052.00;20614288;28;20043;-67
2021/06/22 07:30:50;;;;;;;9.02;5.15;;;;;;;15.63;88.14;100065.72;20557809;28;20385;-67
2021/06/22 07:40:54;;;;;;;7.63;4.50;;;;;;;15.55;87.62;100073.06;20576482;28;20054;-67
2021/06/22 07:50:57;;;;;;;9.18;5.40;;;;;;;15.60;88.59;100067.59;20560457;28;20460;-68
2021/06/22 08:00:59;;;;;;;11.18;5.68;;;;;;;16.10;87.61;100078.69;20590624;28;20051;-69
2021/06/22 08:11:01;;;;;;;10.10;5.22;;;;;;;16.05;85.61;100072.75;20586985;28;20303;-68
2021/06/22 08:21:03;;;;;;;7.70;4.72;;;;;;;16.11;86.20;100083.03;20608100;28;20047;-68
2021/06/22 08:31:05;;;;;;;9.77;4.85;;;;;;;16.39;85.30;100087.13;20625791;28;20097;-69
2021/06/22 08:41:08;;;;;;;8.43;4.82;;;;;;;16.42;85.77;100103.66;20616173;28;20061;-68
2021/06/22 08:51:10;;;;;;;8.43;4.78;;;;;;;16.53;86.42;100108.50;20667173;28;20555;-68
2021/06/22 09:01:13;;;;;;;14.00;6.13;;;;;;;16.77;86.48;100103.03;20665834;28;20046;-67
2021/06/22 09:11:14;;;;;;;10.80;5.65;;;;;;;16.65;84.21;100096.50;20588105;28;20504;-67
2021/06/22 09:21:23;;;;;;;9.63;5.03;;;;;;;16.76;84.35;100118.03;20583791;28;20051;-68
2021/06/22 09:31:25;;;;;;;7.93;5.22;;;;;;;16.84;83.02;100115.91;20577898;28;20055;-67
2021/06/22 09:41:34;;;;;;;7.82;5.50;;;;;;;16.73;83.26;100133.22;20581455;28;20053;-67
2021/06/22 09:51:46;;;;;;;9.20;5.97;;;;;;;16.85;84.63;100130.00;20580666;28;20142;-67
2021/06/22 10:01:48;;;;;;;9.90;6.70;;;;;;;16.75;85.87;100152.50;20580862;28;20058;-67
2021/06/22 10:12:02;;;;;;;11.88;6.88;;;;;;;16.81;84.80;100149.56;20579964;28;20050;-68
2021/06/22 10:22:06;;;;;;;13.07;7.32;;;;;;;16.77;85.65;100161.19;20577834;28;20047;-68
2021/06/22 10:32:08;;;;;;;12.27;8.05;;;;;;;16.73;86.89;100165.78;20577938;28;20178;-68
2021/06/22 10:42:12;;;;;;;11.68;9.23;;;;;;;16.69;86.56;100164.19;20577885;28;20114;-66
2021/06/22 10:52:46;;;;;;;12.85;9.90;;;;;;;16.59;87.84;100169.00;20576966;28;20109;-68
2021/06/22 11:03:10;;;;;;;14.60;10.55;;;;;;;17.16;86.64;100169.13;20575746;28;20043;-68
2021/06/22 11:13:32;;;;;;;13.25;10.55;;;;;;;17.11;85.29;100176.41;20575735;28;20113;-66
2021/06/22 11:24:08;;;;;;;13.55;10.43;;;;;;;17.08;86.24;100169.47;20639321;28;20050;-69
2021/06/22 11:34:15;;;;;;;14.50;11.27;;;;;;;17.12;86.45;100163.09;20670163;28;20463;-67
2021/06/22 11:44:17;;;;;;;13.98;11.27;;;;;;;17.07;85.53;100186.28;20671417;28;20412;-67
2021/06/22 11:54:40;;;;;;;11.75;9.43;;;;;;;17.19;85.80;100172.47;20670934;28;20450;-67
2021/06/22 12:04:42;;;;;;;14.88;10.80;;;;;;;17.03;86.10;100189.13;20669521;28;20053;-68
2021/06/22 12:14:52;;;;;;;19.90;13.02;;;;;;;17.24;87.64;100179.34;20635897;28;20051;-69
2021/06/22 12:24:53;;;;;;;13.95;10.95;;;;;;;17.16;87.61;100174.41;20623580;28;20053;-66
2021/06/22 12:34:55;;;;;;;16.33;12.23;;;;;;;17.25;87.54;100146.63;20666425;28;20046;-66
2021/06/22 12:44:57;;;;;;;14.57;11.40;;;;;;;18.22;85.54;100140.16;20632872;28;20342;-67
2021/06/22 12:54:59;;;;;;;12.38;9.15;;;;;;;18.38;84.29;100141.06;20665864;28;20081;-67
2021/06/22 13:05:00;;;;;;;12.80;8.52;;;;;;;18.81;79.45;100139.66;20665703;28;20101;-68
2021/06/22 13:15:05;;;;;;;7.88;5.90;;;;;;;18.68;80.11;100150.09;20626890;28;20287;-68
2021/06/22 13:25:10;;;;;;;11.13;7.40;;;;;;;18.78;79.37;100149.56;20582248;28;20468;-69
2021/06/22 13:35:27;;;;;;;9.02;5.30;;;;;;;19.08;76.56;100163.84;20581703;28;20141;-69
2021/06/22 13:45:34;;;;;;;7.25;5.93;;;;;;;19.55;75.64;100168.31;20581597;28;20054;-69
2021/06/22 13:55:36;;;;;;;6.45;4.68;;;;;;;20.48;70.02;100180.66;20580657;28;20098;-70
2021/06/22 14:05:41;;;;;;;5.68;3.83;;;;;;;19.97;72.00;100167.66;20582682;28;20397;-69
2021/06/22 14:15:45;;;;;;;6.28;3.58;;;;;;;19.63;74.56;100186.50;20578746;28;20117;-69
2021/06/22 14:25:48;;;;;;;5.47;4.00;;;;;;;20.13;74.74;100180.94;20626261;28;20050;-69
2021/06/22 14:35:52;;;;;;;4.82;3.20;;;;;;;20.33;73.43;100184.22;20641320;28;20398;-69
2021/06/22 14:45:54;;;;;;;4.07;2.37;;;;;;;20.38;69.71;100198.09;20636381;28;20042;-69
2021/06/22 14:55:56;;;;;;;4.28;2.50;;;;;;;20.55;70.05;100203.28;20626439;28;20743;-70
2021/06/22 15:06:12;;;;;;;6.23;2.80;;;;;;;20.04;71.37;100207.19;20623427;28;20073;-70
2021/06/22 15:16:13;;;;;;;5.20;2.55;;;;;;;20.23;71.67;100205.19;20625262;28;20047;-69
2021/06/22 15:26:15;;;;;;;6.28;3.60;;;;;;;20.25;73.45;100206.78;20641093;28;20461;-68
2021/06/22 15:36:16;;;;;;;5.63;3.30;;;;;;;20.45;71.89;100188.78;20642448;28;20101;-68
2021/06/22 15:46:18;;;;;;;4.82;2.95;;;;;;;20.74;67.20;100190.59;20640071;28;20382;-69
2021/06/22 15:56:21;;;;;;;5.55;3.10;;;;;;;21.14;66.59;100200.56;20655477;28;20081;-69
2021/06/22 16:06:22;;;;;;;3.88;2.50;;;;;;;21.37;66.17;100197.34;20653232;28;20055;-70
2021/06/22 16:16:24;;;;;;;4.28;2.80;;;;;;;21.27;65.17;100202.38;20631361;28;20054;-70
2021/06/22 16:26:28;;;;;;;4.60;2.90;;;;;;;20.93;66.53;100213.41;20667656;28;20133;-70
2021/06/22 16:36:30;;;;;;;5.82;3.70;;;;;;;21.36;65.65;100205.41;20667512;28;20043;-70
2021/06/22 16:46:33;;;;;;;3.92;2.63;;;;;;;21.71;63.41;100222.69;20657704;28;20054;-70
2021/06/22 16:56:35;;;;;;;6.38;3.05;;;;;;;20.94;64.40;100209.81;20642272;28;20085;-69
2021/06/22 17:06:37;;;;;;;4.70;3.00;;;;;;;20.75;67.03;100216.25;20661630;28;20428;-70
2021/06/22 17:16:39;;;;;;;4.10;2.70;;;;;;;20.93;65.16;100221.38;20651216;28;20073;-70
2021/06/22 17:26:41;;;;;;;4.45;3.10;;;;;;;20.57;66.48;100233.31;20655871;28;20057;-70
2021/06/22 17:36:43;;;;;;;5.03;3.15;;;;;;;20.27;67.85;100245.75;20658034;28;20058;-70
2021/06/22 17:46:45;;;;;;;5.45;3.00;;;;;;;20.16;68.68;100265.81;20645467;28;20054;-70
2021/06/22 17:56:47;;;;;;;3.92;2.90;;;;;;;20.06;71.14;100261.97;20657303;28;20038;-69
2021/06/22 18:06:49;;;;;;;6.57;5.25;;;;;;;19.61;73.85;100237.06;20625304;28;20047;-70
2021/06/22 18:16:51;;;;;;;7.65;5.43;;;;;;;19.30;74.85;100247.59;20617819;28;20042;-70
2021/06/22 18:26:53;;;;;;;9.50;7.60;;;;;;;19.03;75.91;100256.13;20736794;28;20127;-69
2021/06/22 18:36:55;;;;;;;7.97;5.05;;;;;;;18.98;77.46;100274.09;20734223;28;20443;-70
2021/06/22 18:46:56;;;;;;;8.18;5.45;;;;;;;18.76;78.16;100300.84;20734149;28;20042;-69
2021/06/22 18:56:58;;;;;;;7.13;4.93;;;;;;;18.56;79.27;100309.78;20732697;28;20049;-69
2021/06/22 19:07:00;;;;;;;5.78;4.80;;;;;;;18.47;79.08;100326.16;20733961;28;20554;-70
2021/06/22 19:17:02;;;;;;;6.78;5.07;;;;;;;18.47;79.45;100312.91;20732921;28;20112;-69
2021/06/22 19:27:04;;;;;;;9.38;6.55;;;;;;;18.45;80.53;100296.22;20734060;28;20463;-69
2021/06/22 19:37:06;;;;;;;9.63;6.15;;;;;;;18.34;80.60;100325.03;20732786;28;20048;-69
2021/06/22 19:47:08;;;;;;;10.45;8.02;;;;;;;18.22;80.89;100315.06;20734477;28;20100;-69
2021/06/22 19:57:09;;;;;;;9.18;6.43;;;;;;;18.01;82.85;100320.44;20748297;28;20115;-70
2021/06/22 20:07:11;;;;;;;10.02;6.75;;;;;;;17.69;84.16;100333.38;20743301;28;20046;-69
2021/06/22 20:17:13;;;;;;;8.40;6.85;;;;;;;17.43;84.49;100349.56;20745367;28;20076;-69
2021/06/22 20:27:15;;;;;;;9.50;8.00;;;;;;;17.28;85.06;100353.78;20744217;28;20042;-69
2021/06/22 20:37:20;;;;;;;13.20;9.15;;;;;;;17.11;85.99;100349.22;20727658;28;20052;-69
2021/06/22 20:47:22;;;;;;;13.93;10.02;;;;;;;17.06;86.27;100348.56;20744106;28;20088;-69
2021/06/22 20:57:24;;;;;;;18.45;9.63;;;;;;;17.09;85.67;100368.72;20744061;28;20053;-69
2021/06/22 21:07:26;;;;;;;17.63;10.75;;;;;;;17.00;85.55;100369.97;20742475;28;20393;-70
2021/06/22 21:17:27;;;;;;;16.75;11.52;;;;;;;16.93;85.97;100369.38;20742979;28;20046;-70
2021/06/22 21:27:29;;;;;;;16.38;11.52;;;;;;;16.92;85.91;100398.56;20743849;28;20743;-69
2021/06/22 21:37:31;;;;;;;15.77;10.93;;;;;;;16.87;85.80;100400.53;20739516;28;20512;-70
2021/06/22 21:47:33;;;;;;;16.60;10.40;;;;;;;16.82;85.86;100394.56;20740759;28;20041;-70
2021/06/22 21:57:35;;;;;;;17.65;10.05;;;;;;;16.77;85.89;100396.53;20739609;28;20653;-70
2021/06/22 22:07:37;;;;;;;14.73;9.75;;;;;;;16.65;86.77;100390.78;20735246;28;20065;-70
2021/06/22 22:17:39;;;;;;;17.83;10.63;;;;;;;16.61;86.68;100409.50;20730144;28;20097;-68
2021/06/22 22:27:42;;;;;;;14.73;9.82;;;;;;;16.67;86.17;100423.34;20731083;28;20096;-69
2021/06/22 22:37:44;;;;;;;18.20;11.15;;;;;;;16.61;86.90;100415.63;20731004;28;20057;-70
2021/06/22 22:47:45;;;;;;;16.52;11.27;;;;;;;16.60;86.37;100418.34;20730951;28;20492;-69
2021/06/22 22:57:48;;;;;;;17.15;11.15;;;;;;;16.44;87.38;100407.53;20730004;28;20052;-69
2021/06/22 23:07:49;;;;;;;18.15;12.32;;;;;;;16.45;87.46;100440.09;20728807;28;20100;-69
2021/06/22 23:17:51;;;;;;;20.27;12.85;;;;;;;16.51;86.73;100438.06;20728202;28;20050;-69
2021/06/22 23:27:52;;;;;;;21.48;11.70;;;;;;;16.40;87.50;100433.22;20739930;28;20049;-70
2021/06/22 23:37:54;;;;;;;22.00;13.07;;;;;;;16.37;87.81;100427.19;20744158;28;20230;-70
2021/06/22 23:47:56;;;;;;;19.25;11.82;;;;;;;16.43;87.14;100445.44;20744409;28;20054;-70
2021/06/22 23:57:59;;;;;;;17.20;12.07;;;;;;;16.53;86.44;100454.75;20743034;28;20050;-69
